createdAt,value
2022-08-22T00:02:23.857Z,3.47
2022-08-22T00:02:44.178Z,3.83
2022-08-22T00:02:48.244Z,2.00
2022-08-22T00:02:53.912Z,2.63
2022-08-22T00:03:00.574Z,3.30
2022-08-22T00:05:37.789Z,3.80
2022-08-22T00:08:17.850Z,3.97
2022-08-22T00:11:08.781Z,3.83
2022-08-22T00:14:10.811Z,4.00
2022-08-22T00:16:46.663Z,3.73
2022-08-22T00:19:27.173Z,3.37
2022-08-22T00:22:26.532Z,4.00
2022-08-22T00:25:25.673Z,4.10
2022-08-22T00:28:04.442Z,3.40
2022-08-22T00:30:42.705Z,3.50
2022-08-22T00:33:25.135Z,4.77
2022-08-22T00:36:01.756Z,6.00
2022-08-22T00:38:33.902Z,4.47
2022-08-22T00:41:19.156Z,3.97
2022-08-22T00:44:15.764Z,3.70
2022-08-22T00:47:08.306Z,3.77
2022-08-22T00:50:00.336Z,4.07
2022-08-22T00:52:51.665Z,4.03
2022-08-22T00:55:55.062Z,3.83
2022-08-22T00:59:17.980Z,3.77
2022-08-22T01:02:03.460Z,4.23
2022-08-22T01:04:41.418Z,4.50
2022-08-22T01:07:43.489Z,3.83
2022-08-22T01:10:30.212Z,3.53
2022-08-22T01:13:06.051Z,4.70
2022-08-22T01:15:36.437Z,4.30
2022-08-22T01:18:21.749Z,4.40
2022-08-22T01:21:24.340Z,4.20
2022-08-22T01:24:04.760Z,4.40
2022-08-22T01:26:55.660Z,4.30
2022-08-22T01:29:45.904Z,4.20
2022-08-22T01:32:31.342Z,4.63
2022-08-22T01:35:19.366Z,4.10
2022-08-22T01:38:09.359Z,4.90
2022-08-22T01:41:06.520Z,4.30
2022-08-22T01:44:15.544Z,4.37
2022-08-22T01:46:58.607Z,3.97
2022-08-22T01:49:34.412Z,3.93
2022-08-22T01:52:37.290Z,4.03
2022-08-22T01:55:09.478Z,3.87
2022-08-22T01:57:59.292Z,4.60
2022-08-22T02:00:35.975Z,4.53
2022-08-22T02:03:21.950Z,4.43
2022-08-22T02:06:14.516Z,4.00
2022-08-22T02:08:59.024Z,4.17
2022-08-22T02:11:50.538Z,4.83
2022-08-22T02:14:38.735Z,4.37
2022-08-22T02:17:22.097Z,4.17
2022-08-22T02:20:04.977Z,4.57
2022-08-22T02:22:54.438Z,3.97
2022-08-22T02:25:30.221Z,4.30
2022-08-22T02:28:15.870Z,4.63
2022-08-22T02:30:54.363Z,4.43
2022-08-22T02:33:56.646Z,4.57
2022-08-22T02:36:32.227Z,4.70
2022-08-22T02:39:13.655Z,3.90
2022-08-22T02:42:23.944Z,4.40
2022-08-22T02:45:16.276Z,4.23
2022-08-22T02:47:50.145Z,4.20
2022-08-22T02:50:43.151Z,4.27
2022-08-22T02:53:13.717Z,4.77
2022-08-22T02:56:00.193Z,4.40
2022-08-22T02:58:49.623Z,4.40
2022-08-22T03:01:20.966Z,3.87
2022-08-22T03:03:49.574Z,4.63
2022-08-22T03:06:38.327Z,4.53
2022-08-22T03:09:14.498Z,4.13
2022-08-22T03:11:49.383Z,4.40
2022-08-22T03:14:33.223Z,4.37
2022-08-22T03:17:30.531Z,4.20
2022-08-22T03:20:43.504Z,5.23
2022-08-22T03:23:28.157Z,4.00
2022-08-22T03:26:16.127Z,4.40
2022-08-22T03:28:59.493Z,4.10
2022-08-22T03:31:31.264Z,4.83
2022-08-22T03:34:25.039Z,4.00
2022-08-22T03:37:26.223Z,5.17
2022-08-22T03:40:21.926Z,4.40
2022-08-22T03:42:54.529Z,4.47
2022-08-22T03:45:48.321Z,4.47
2022-08-22T03:48:30.212Z,4.43
2022-08-22T03:51:08.919Z,4.73
2022-08-22T03:54:06.438Z,3.73
2022-08-22T03:56:39.148Z,3.87
2022-08-22T03:59:36.559Z,4.60
2022-08-22T04:02:43.652Z,4.33
2022-08-22T04:05:27.726Z,3.90
2022-08-22T04:08:13.056Z,4.07
2022-08-22T04:10:56.489Z,3.93
2022-08-22T04:13:56.661Z,4.07
2022-08-22T04:16:41.449Z,4.23
2022-08-22T04:19:11.259Z,4.00
2022-08-22T04:22:07.766Z,5.10
2022-08-22T04:24:52.097Z,4.90
2022-08-22T04:27:31.515Z,4.53
2022-08-22T04:30:23.030Z,4.33
2022-08-22T04:33:06.585Z,3.83
2022-08-22T04:35:39.086Z,4.60
2022-08-22T04:38:23.956Z,4.07
2022-08-22T04:40:59.414Z,5.03
2022-08-22T04:43:47.001Z,5.20
2022-08-22T04:46:17.431Z,4.77
2022-08-22T04:48:53.276Z,4.30
2022-08-22T04:52:11.138Z,4.70
2022-08-22T04:55:21.045Z,4.87
2022-08-22T04:58:09.640Z,4.90
2022-08-22T05:01:08.620Z,5.13
2022-08-22T05:03:44.855Z,5.30
2022-08-22T05:06:15.842Z,4.63
2022-08-22T05:08:46.024Z,4.30
2022-08-22T05:11:21.695Z,4.90
2022-08-22T05:13:56.881Z,4.90
2022-08-22T05:16:31.269Z,4.80
2022-08-22T05:19:15.814Z,4.43
2022-08-22T05:21:46.309Z,4.57
2022-08-22T05:24:42.556Z,4.60
2022-08-22T05:27:22.973Z,4.67
2022-08-22T05:29:54.652Z,4.67
2022-08-22T05:32:27.265Z,4.30
2022-08-22T05:34:59.193Z,5.23
2022-08-22T05:37:35.051Z,5.07
2022-08-22T05:40:02.289Z,4.40
2022-08-22T05:42:34.489Z,4.73
2022-08-22T05:45:05.492Z,4.30
2022-08-22T05:48:04.177Z,4.70
2022-08-22T05:50:43.245Z,4.70
2022-08-22T05:53:18.704Z,4.57
2022-08-22T05:56:03.784Z,5.20
2022-08-22T05:58:40.176Z,5.70
2022-08-22T06:01:29.902Z,5.00
2022-08-22T06:03:59.692Z,5.27
2022-08-22T06:06:30.043Z,5.37
2022-08-22T06:09:25.421Z,4.77
2022-08-22T06:12:21.828Z,5.60
2022-08-22T06:15:14.361Z,5.40
2022-08-22T06:17:55.287Z,5.57
2022-08-22T06:20:32.300Z,5.20
2022-08-22T06:23:02.245Z,5.47
2022-08-22T06:25:40.421Z,4.70
2022-08-22T06:28:11.505Z,6.20
2022-08-22T06:30:39.898Z,5.37
2022-08-22T06:33:13.644Z,5.47
2022-08-22T06:36:13.447Z,5.07
2022-08-22T06:39:17.143Z,6.10
2022-08-22T06:41:55.752Z,4.40
2022-08-22T06:44:29.384Z,4.43
2022-08-22T06:47:00.200Z,4.60
2022-08-22T06:49:31.710Z,5.67
2022-08-22T06:52:03.383Z,6.27
2022-08-22T06:54:36.927Z,5.03
2022-08-22T06:57:06.727Z,4.50
2022-08-22T06:59:38.016Z,4.90
2022-08-22T07:02:22.950Z,5.20
2022-08-22T07:04:51.504Z,4.27
2022-08-22T07:07:21.366Z,4.77
2022-08-22T07:09:55.346Z,5.10
2022-08-22T07:12:30.819Z,5.60
2022-08-22T07:15:36.624Z,4.88
2022-08-22T07:18:22.620Z,4.85
2022-08-22T07:20:55.368Z,5.78
2022-08-22T07:23:34.195Z,5.10
2022-08-22T07:26:20.088Z,5.70
2022-08-22T07:29:12.271Z,5.53
2022-08-22T07:32:18.740Z,5.32
2022-08-22T07:35:04.718Z,5.45
2022-08-22T07:37:50.202Z,4.85
2022-08-22T07:40:30.106Z,4.80
2022-08-22T07:43:25.119Z,5.28
2022-08-22T07:46:06.084Z,4.88
2022-08-22T07:48:44.715Z,5.47
2022-08-22T07:51:52.038Z,4.60
2022-08-22T07:54:36.936Z,4.43
2022-08-22T07:57:10.789Z,4.65
2022-08-22T07:59:46.391Z,4.10
2022-08-22T08:02:15.597Z,5.32
2022-08-22T08:04:43.825Z,4.55
2022-08-22T08:07:14.391Z,4.10
2022-08-22T08:09:53.878Z,4.40
2022-08-22T08:12:41.076Z,4.72
2022-08-22T08:15:15.298Z,4.55
2022-08-22T08:17:44.922Z,4.95
2022-08-22T08:20:16.141Z,4.22
2022-08-22T08:22:44.869Z,4.35
2022-08-22T08:25:18.457Z,5.05
2022-08-22T08:28:04.905Z,4.72
2022-08-22T08:30:52.919Z,3.78
2022-08-22T08:33:24.865Z,5.15
2022-08-22T08:36:02.514Z,4.00
2022-08-22T08:38:43.603Z,4.07
2022-08-22T08:41:45.570Z,3.72
2022-08-22T08:44:26.389Z,3.83
2022-08-22T08:47:11.672Z,3.78
2022-08-22T08:50:08.000Z,3.42
2022-08-22T08:53:01.424Z,4.15
2022-08-22T08:55:48.065Z,5.47
2022-08-22T08:58:24.101Z,3.75
2022-08-22T09:00:55.716Z,3.63
2022-08-22T09:04:04.412Z,3.50
2022-08-22T09:06:52.585Z,3.17
2022-08-22T09:09:52.662Z,3.45
2022-08-22T09:12:56.091Z,3.05
2022-08-22T09:15:54.924Z,3.78
2022-08-22T09:18:41.428Z,3.10
2022-08-22T09:21:38.695Z,2.60
2022-08-22T09:24:29.631Z,2.97
2022-08-22T09:27:01.281Z,3.13
2022-08-22T09:29:54.558Z,2.80
2022-08-22T09:32:46.696Z,3.33
2022-08-22T09:35:20.757Z,3.15
2022-08-22T09:37:58.900Z,2.80
2022-08-22T09:40:35.510Z,2.60
2022-08-22T09:43:21.053Z,2.70
2022-08-22T09:46:23.550Z,2.70
2022-08-22T09:48:58.848Z,2.63
2022-08-22T09:51:48.875Z,2.95
2022-08-22T09:54:37.328Z,2.20
2022-08-22T09:57:17.970Z,2.80
2022-08-22T10:00:06.097Z,2.55
2022-08-22T10:03:04.584Z,2.60
2022-08-22T10:05:47.111Z,2.03
2022-08-22T10:08:31.195Z,2.33
2022-08-22T10:11:19.541Z,2.55
2022-08-22T10:13:57.785Z,1.90
2022-08-22T10:17:08.506Z,2.40
2022-08-22T10:19:57.015Z,2.22
2022-08-22T10:22:44.744Z,2.10
2022-08-22T10:25:23.153Z,2.30
2022-08-22T10:28:08.623Z,2.40
2022-08-22T10:30:48.026Z,2.70
2022-08-22T10:33:33.197Z,1.80
2022-08-22T10:36:30.684Z,2.38
2022-08-22T10:39:00.076Z,2.45
2022-08-22T10:42:10.596Z,2.38
2022-08-22T10:45:13.020Z,2.10
2022-08-22T10:48:10.083Z,2.00
2022-08-22T10:50:50.067Z,2.40
2022-08-22T10:53:48.982Z,2.28
2022-08-22T10:56:47.590Z,2.17
2022-08-22T10:59:23.380Z,1.92
2022-08-22T11:02:20.847Z,1.90
2022-08-22T11:05:13.944Z,2.22
2022-08-22T11:08:18.435Z,1.80
2022-08-22T11:11:06.459Z,1.80
2022-08-22T11:14:10.339Z,1.92
2022-08-22T11:17:28.886Z,1.77
2022-08-22T11:20:45.740Z,1.70
2022-08-22T11:23:21.494Z,2.13
2022-08-22T11:26:12.470Z,1.88
2022-08-22T11:28:44.576Z,1.95
2022-08-22T11:31:47.295Z,1.75
2022-08-22T11:34:39.504Z,1.90
2022-08-22T11:37:42.542Z,2.00
2022-08-22T11:40:47.007Z,2.00
2022-08-22T11:43:40.201Z,2.13
2022-08-22T11:46:36.899Z,2.13
2022-08-22T11:49:27.012Z,2.40
2022-08-22T11:52:18.279Z,2.17
2022-08-22T11:55:24.074Z,1.90
2022-08-22T11:58:10.502Z,1.80
2022-08-22T12:00:47.756Z,2.80
2022-08-22T12:03:43.632Z,2.25
2022-08-22T12:06:39.340Z,1.88
2022-08-22T12:09:10.354Z,1.67
2022-08-22T12:11:46.787Z,2.03
2022-08-22T12:14:39.368Z,2.50
2022-08-22T12:18:01.456Z,2.35
2022-08-22T12:21:13.644Z,2.00
2022-08-22T12:24:31.479Z,2.17
2022-08-22T12:27:28.909Z,1.90
2022-08-22T12:30:19.688Z,1.92
2022-08-22T12:33:10.548Z,2.35
2022-08-22T12:36:12.610Z,3.15
2022-08-22T12:39:00.966Z,2.58
2022-08-22T12:41:56.526Z,2.10
2022-08-22T12:44:42.839Z,2.30
2022-08-22T12:47:13.889Z,2.20
2022-08-22T12:50:02.685Z,2.58
2022-08-22T12:52:53.662Z,2.03
2022-08-22T12:55:36.684Z,2.45
2022-08-22T12:58:33.960Z,2.40
2022-08-22T13:01:07.098Z,2.85
2022-08-22T13:03:51.019Z,2.33
2022-08-22T13:06:35.845Z,2.38
2022-08-22T13:09:18.887Z,2.30
2022-08-22T13:11:51.932Z,1.98
2022-08-22T13:14:27.381Z,2.10
2022-08-22T13:16:58.699Z,2.28
2022-08-22T13:19:33.093Z,2.30
2022-08-22T13:22:07.982Z,2.17
2022-08-22T13:24:51.971Z,2.33
2022-08-22T13:27:30.301Z,2.60
2022-08-22T13:30:12.564Z,2.10
2022-08-22T13:32:44.682Z,2.60
2022-08-22T13:35:24.690Z,2.17
2022-08-22T13:38:14.974Z,3.10
2022-08-22T13:40:47.871Z,2.22
2022-08-22T13:43:21.313Z,2.28
2022-08-22T13:45:58.724Z,2.40
2022-08-22T13:48:46.719Z,2.20
2022-08-22T13:51:26.311Z,2.03
2022-08-22T13:54:22.164Z,2.40
2022-08-22T13:56:54.680Z,2.25
2022-08-22T13:59:59.508Z,2.20
2022-08-22T14:02:37.918Z,2.53
2022-08-22T14:05:12.426Z,1.90
2022-08-22T14:07:55.860Z,2.55
2022-08-22T14:10:30.457Z,2.55
2022-08-22T14:12:57.593Z,2.60
2022-08-22T14:15:46.127Z,2.40
2022-08-22T14:18:45.438Z,2.30
2022-08-22T14:21:27.639Z,2.40
2022-08-22T14:24:00.714Z,2.40
2022-08-22T14:26:47.698Z,2.50
2022-08-22T14:29:18.675Z,2.55
2022-08-22T14:32:14.453Z,2.25
2022-08-22T14:34:47.535Z,2.47
2022-08-22T14:37:24.139Z,2.25
2022-08-22T14:40:10.871Z,2.22
2022-08-22T14:42:47.658Z,2.28
2022-08-22T14:45:19.351Z,2.35
2022-08-22T14:48:30.429Z,2.28
2022-08-22T14:51:05.952Z,2.03
2022-08-22T14:53:38.608Z,2.40
2022-08-22T14:56:21.934Z,2.42
2022-08-22T14:58:57.594Z,2.90
2022-08-22T15:01:32.583Z,2.55
2022-08-22T15:04:05.495Z,1.92
2022-08-22T15:06:47.573Z,2.50
2022-08-22T15:09:35.303Z,3.00
2022-08-22T15:12:05.590Z,2.42
2022-08-22T15:14:35.472Z,2.30
2022-08-22T15:17:05.981Z,2.58
2022-08-22T15:19:41.187Z,2.13
2022-08-22T15:22:25.829Z,2.28
2022-08-22T15:25:04.151Z,2.20
2022-08-22T15:27:35.052Z,2.50
2022-08-22T15:30:20.690Z,2.55
2022-08-22T15:32:49.074Z,2.10
2022-08-22T15:35:38.904Z,2.35
2022-08-22T15:38:23.088Z,3.20
2022-08-22T15:40:55.928Z,2.25
2022-08-22T15:43:34.914Z,2.47
2022-08-22T15:46:17.934Z,2.10
2022-08-22T15:48:57.549Z,2.10
2022-08-22T15:51:57.271Z,2.40
2022-08-22T15:54:31.948Z,2.75
2022-08-22T15:57:10.398Z,2.70
2022-08-22T15:59:54.250Z,2.25
2022-08-22T16:02:35.591Z,2.42
2022-08-22T16:05:11.772Z,2.25
2022-08-22T16:08:03.737Z,2.30
2022-08-22T16:10:37.112Z,2.50
2022-08-22T16:13:15.770Z,2.38
2022-08-22T16:15:51.547Z,2.45
2022-08-22T16:18:37.616Z,2.17
2022-08-22T16:21:08.352Z,2.33
2022-08-22T16:23:53.762Z,2.65
2022-08-22T16:26:31.073Z,2.45
2022-08-22T16:29:04.180Z,2.05
2022-08-22T16:31:59.945Z,2.45
2022-08-22T16:34:39.658Z,1.80
2022-08-22T16:37:14.542Z,2.13
2022-08-22T16:40:00.885Z,2.40
2022-08-22T16:42:57.527Z,2.55
2022-08-22T16:45:45.518Z,2.30
2022-08-22T16:48:33.336Z,2.05
2022-08-22T16:51:07.291Z,2.05
2022-08-22T16:53:45.663Z,2.40
2022-08-22T16:56:42.053Z,1.92
2022-08-22T16:59:23.827Z,2.13
2022-08-22T17:02:07.748Z,2.13
2022-08-22T17:05:08.836Z,2.55
2022-08-22T17:07:56.368Z,2.40
2022-08-22T17:10:52.626Z,2.15
2022-08-22T17:13:26.547Z,2.20
2022-08-22T17:16:13.535Z,1.95
2022-08-22T17:18:45.385Z,2.10
2022-08-22T17:21:38.418Z,2.20
2022-08-22T17:24:34.053Z,2.55
2022-08-22T17:27:14.892Z,2.53
2022-08-22T17:29:59.379Z,2.08
2022-08-22T17:32:44.373Z,2.63
2022-08-22T17:35:20.083Z,2.40
2022-08-22T17:38:41.512Z,2.38
2022-08-22T17:41:45.294Z,2.78
2022-08-22T17:44:24.863Z,2.53
2022-08-22T17:47:08.244Z,2.67
2022-08-22T17:49:45.196Z,2.65
2022-08-22T17:52:31.452Z,2.63
2022-08-22T17:55:16.525Z,2.50
2022-08-22T17:57:57.008Z,3.72
2022-08-22T18:00:34.785Z,5.50
2022-08-22T18:03:09.534Z,4.82
2022-08-22T18:05:47.433Z,3.00
2022-08-22T18:09:12.911Z,2.65
2022-08-22T18:11:44.743Z,4.53
2022-08-22T18:14:25.766Z,3.97
2022-08-22T18:16:54.854Z,4.18
2022-08-22T18:19:24.404Z,3.22
2022-08-22T18:22:16.991Z,3.35
2022-08-22T18:24:53.770Z,2.20
2022-08-22T18:27:35.324Z,2.80
2022-08-22T18:30:11.275Z,3.13
2022-08-22T18:33:01.091Z,2.50
2022-08-22T18:35:53.044Z,2.80
2022-08-22T18:38:34.648Z,3.00
2022-08-22T18:41:12.778Z,2.38
2022-08-22T18:43:48.125Z,14.63
2022-08-22T18:46:39.415Z,6.35
2022-08-22T18:49:24.586Z,3.28
2022-08-22T18:52:09.758Z,2.67
2022-08-22T18:55:11.395Z,2.40
2022-08-22T18:58:09.899Z,3.05
2022-08-22T19:00:51.881Z,2.85
2022-08-22T19:03:47.396Z,2.78
2022-08-22T19:06:52.084Z,2.30
2022-08-22T19:09:55.991Z,2.30
2022-08-22T19:12:56.415Z,2.70
2022-08-22T19:15:55.988Z,2.40
2022-08-22T19:19:37.617Z,2.70
2022-08-22T19:22:30.780Z,2.60
2022-08-22T19:25:25.921Z,2.83
2022-08-22T19:28:11.335Z,2.28
2022-08-22T19:30:45.567Z,2.58
2022-08-22T19:33:39.148Z,2.58
2022-08-22T19:36:35.318Z,2.58
2022-08-22T19:39:10.526Z,2.30
2022-08-22T19:41:45.365Z,2.67
2022-08-22T19:44:18.226Z,2.60
2022-08-22T19:47:07.499Z,2.45
2022-08-22T19:49:43.323Z,2.70
2022-08-22T19:52:16.264Z,2.70
2022-08-22T19:54:49.734Z,2.90
2022-08-22T19:57:27.622Z,2.50
2022-08-22T20:00:11.868Z,2.60
2022-08-22T20:03:10.788Z,2.53
2022-08-22T20:06:45.292Z,2.83
2022-08-22T20:09:51.281Z,2.70
2022-08-22T20:12:38.057Z,3.63
2022-08-22T20:15:18.200Z,3.13
2022-08-22T20:18:11.684Z,3.42
2022-08-22T20:20:54.560Z,3.13
2022-08-22T20:23:34.300Z,3.33
2022-08-22T20:26:01.308Z,3.15
2022-08-22T20:28:47.407Z,2.70
2022-08-22T20:31:25.830Z,3.00
2022-08-22T20:34:00.465Z,3.05
2022-08-22T20:36:29.275Z,2.95
2022-08-22T20:39:09.518Z,2.50
2022-08-22T20:41:45.784Z,2.63
2022-08-22T20:44:39.885Z,2.95
2022-08-22T20:47:14.231Z,2.80
2022-08-22T20:49:50.585Z,2.40
2022-08-22T20:52:29.176Z,3.10
2022-08-22T20:55:31.838Z,2.53
2022-08-22T20:58:08.003Z,3.05
2022-08-22T21:00:48.048Z,3.10
2022-08-22T21:03:59.203Z,2.85
2022-08-22T21:06:31.912Z,3.15
2022-08-22T21:09:53.991Z,2.90
2022-08-22T21:12:22.407Z,2.80
2022-08-22T21:14:49.183Z,2.50
2022-08-22T21:17:17.291Z,2.78
2022-08-22T21:19:44.067Z,2.97
2022-08-22T21:22:16.477Z,2.70
2022-08-22T21:24:43.510Z,2.53
2022-08-22T21:27:18.952Z,2.85
2022-08-22T21:29:46.680Z,2.70
2022-08-22T21:32:23.741Z,3.33
2022-08-22T21:34:51.553Z,2.50
2022-08-22T21:37:25.813Z,3.60
2022-08-22T21:40:26.691Z,2.50
2022-08-22T21:43:11.088Z,3.15
2022-08-22T21:45:39.373Z,2.80
2022-08-22T21:48:35.108Z,2.80
2022-08-22T21:51:32.879Z,3.10
2022-08-22T21:54:19.776Z,2.83
2022-08-22T21:56:47.497Z,2.88
2022-08-22T21:59:52.252Z,2.95
2022-08-22T22:02:36.621Z,3.03
2022-08-22T22:05:11.425Z,2.97
2022-08-22T22:07:41.309Z,2.60
2022-08-22T22:10:10.650Z,3.17
2022-08-22T22:12:42.866Z,3.15
2022-08-22T22:15:13.883Z,3.03
2022-08-22T22:17:40.713Z,3.53
2022-08-22T22:20:08.535Z,3.22
2022-08-22T22:22:37.014Z,2.95
2022-08-22T22:25:40.509Z,3.30
2022-08-22T22:27:57.581Z,2.97
2022-08-22T22:30:26.303Z,3.05
2022-08-22T22:32:53.166Z,3.10
2022-08-22T22:35:21.837Z,2.90
2022-08-22T22:37:48.647Z,3.22
2022-08-22T22:40:15.559Z,2.97
2022-08-22T22:42:42.855Z,3.17
2022-08-22T22:45:10.825Z,3.30
2022-08-22T22:47:37.830Z,3.00
2022-08-22T22:50:05.652Z,3.00
2022-08-22T22:52:32.645Z,3.40
2022-08-22T22:54:59.625Z,3.15
2022-08-22T22:57:26.974Z,3.20
2022-08-22T22:59:55.536Z,3.75
2022-08-22T23:02:23.617Z,3.03
2022-08-22T23:04:53.832Z,3.10
2022-08-22T23:07:24.218Z,3.38
2022-08-22T23:09:55.552Z,4.07
2022-08-22T23:12:25.199Z,3.17
2022-08-22T23:14:53.781Z,3.27
2022-08-22T23:17:20.657Z,3.28
2022-08-22T23:19:47.707Z,3.73
2022-08-22T23:22:14.908Z,3.75
2022-08-22T23:24:41.924Z,3.60
2022-08-22T23:27:10.650Z,3.13
2022-08-22T23:29:40.977Z,3.70
2022-08-22T23:32:09.427Z,3.33
2022-08-22T23:34:39.980Z,3.67
2022-08-22T23:37:08.084Z,3.30
2022-08-22T23:39:36.179Z,3.90
2022-08-22T23:42:03.257Z,3.40
2022-08-22T23:44:32.741Z,3.43
2022-08-22T23:47:00.559Z,4.40
2022-08-22T23:49:29.293Z,3.50
2022-08-22T23:51:57.153Z,4.00
2022-08-22T23:54:24.172Z,4.00
2022-08-22T23:57:00.587Z,3.63
2022-08-22T23:59:33.987Z,3.77
